createdAt,value
2019-05-23T00:00:48.254Z,96973.75
2019-05-23T00:06:13.451Z,96975.74
2019-05-23T00:11:40.094Z,96980.23
2019-05-23T00:16:56.025Z,96973.41
2019-05-23T00:21:59.299Z,96972.88
2019-05-23T00:27:02.075Z,96973.05
2019-05-23T00:32:08.578Z,96976.39
2019-05-23T00:37:12.660Z,96975.36
2019-05-23T00:42:14.324Z,96985.02
2019-05-23T00:47:16.543Z,96985.70
2019-05-23T00:52:19.532Z,96995.66
2019-05-23T00:57:22.221Z,96997.81
2019-05-23T01:02:25.199Z,97002.50
2019-05-23T01:07:27.067Z,97009.67
2019-05-23T01:12:30.450Z,97012.35
2019-05-23T01:17:35.064Z,97013.50
2019-05-23T01:22:38.786Z,97013.67
2019-05-23T01:27:40.580Z,97016.00
2019-05-23T01:32:44.262Z,97027.98
2019-05-23T01:37:46.646Z,97035.17
2019-05-23T01:42:48.757Z,97037.50
2019-05-23T01:47:50.670Z,97038.83
2019-05-23T01:52:53.250Z,97033.67
2019-05-23T01:57:55.227Z,97043.99
2019-05-23T02:02:57.399Z,97040.33
2019-05-23T02:08:00.098Z,97038.98
2019-05-23T02:13:02.693Z,97043.97
2019-05-23T02:18:04.401Z,97047.61
2019-05-23T02:23:06.974Z,97040.49
2019-05-23T02:28:09.561Z,97046.64
2019-05-23T02:33:13.345Z,97045.13
2019-05-23T02:38:15.861Z,97046.95
2019-05-23T02:43:22.017Z,97054.95
2019-05-23T02:48:35.026Z,97057.92
2019-05-23T02:53:39.907Z,97056.28
2019-05-23T02:59:05.020Z,97063.58
2019-05-23T03:04:11.435Z,97069.06
2019-05-23T03:09:16.023Z,97071.89
2019-05-23T03:14:18.516Z,97070.72
2019-05-23T03:19:53.581Z,97077.55
2019-05-23T03:25:00.184Z,97084.86
2019-05-23T03:30:09.490Z,97086.99
2019-05-23T03:35:20.487Z,97086.67
2019-05-23T03:40:22.498Z,97084.66
2019-05-23T03:45:26.173Z,97082.50
2019-05-23T03:50:28.120Z,97077.44
2019-05-23T03:55:30.281Z,97076.11
2019-05-23T04:00:35.179Z,97079.79
2019-05-23T04:05:37.995Z,97085.09
2019-05-23T04:10:40.682Z,97087.06
2019-05-23T04:15:42.953Z,97096.22
2019-05-23T04:20:44.677Z,97101.72
2019-05-23T04:25:46.551Z,97103.38
2019-05-23T04:30:48.367Z,97115.36
2019-05-23T04:35:49.857Z,97113.05
2019-05-23T04:40:51.567Z,97130.98
2019-05-23T04:45:53.150Z,97124.33
2019-05-23T04:50:59.723Z,97125.66
2019-05-23T04:56:00.472Z,97128.48
2019-05-23T05:01:04.666Z,97138.44
2019-05-23T05:06:07.157Z,97141.61
2019-05-23T05:11:11.157Z,97146.30
2019-05-23T05:16:12.730Z,97154.95
2019-05-23T05:21:14.544Z,97158.27
2019-05-23T05:26:22.124Z,97166.58
2019-05-23T05:31:23.890Z,97166.41
2019-05-23T05:36:25.853Z,97173.92
2019-05-23T05:41:27.862Z,97193.20
2019-05-23T05:46:29.750Z,97200.03
2019-05-23T05:51:31.871Z,97199.85
2019-05-23T05:56:33.347Z,97202.06
2019-05-23T06:01:35.199Z,97205.90
2019-05-23T06:06:38.782Z,97208.56
2019-05-23T06:11:40.649Z,97216.86
2019-05-23T06:16:42.951Z,97218.52
2019-05-23T06:21:45.239Z,97228.50
2019-05-23T06:26:47.516Z,97230.14
2019-05-23T06:31:49.846Z,97242.25
2019-05-23T06:36:52.359Z,97239.75
2019-05-23T06:41:54.589Z,97250.71
2019-05-23T06:46:56.263Z,97254.07
2019-05-23T06:51:57.787Z,97253.72
2019-05-23T06:56:59.892Z,97259.84
2019-05-23T07:02:02.242Z,97265.31
2019-05-23T07:07:05.399Z,97272.56
2019-05-23T07:12:07.087Z,97285.52
2019-05-23T07:17:10.279Z,97282.31
2019-05-23T07:22:13.441Z,97286.11
2019-05-23T07:27:17.416Z,97290.25
2019-05-23T07:32:19.099Z,97298.55
2019-05-23T07:37:20.724Z,97299.22
2019-05-23T07:42:22.786Z,97306.33
2019-05-23T07:47:24.575Z,97315.96
2019-05-23T07:52:26.762Z,97326.33
2019-05-23T07:57:28.694Z,97329.66
2019-05-23T08:02:34.782Z,97333.30
2019-05-23T08:07:37.467Z,97336.00
2019-05-23T08:12:39.456Z,97344.30
2019-05-23T08:17:41.831Z,97348.94
2019-05-23T08:22:44.981Z,97359.91
2019-05-23T08:27:47.649Z,97364.41
2019-05-23T08:32:49.231Z,97371.76
2019-05-23T08:37:52.017Z,97365.53
2019-05-23T08:42:53.832Z,97372.19
2019-05-23T08:47:55.807Z,97378.48
2019-05-23T08:52:57.683Z,97371.64
2019-05-23T08:57:59.163Z,97376.79
2019-05-23T09:03:03.132Z,97383.91
2019-05-23T09:08:06.005Z,97385.55
2019-05-23T09:13:08.998Z,97384.02
2019-05-23T09:18:12.020Z,97391.49
2019-05-23T09:23:14.656Z,97388.36
2019-05-23T09:28:16.487Z,97399.35
2019-05-23T09:33:18.167Z,97393.68
2019-05-23T09:38:20.583Z,97396.39
2019-05-23T09:43:22.836Z,97404.02
2019-05-23T09:48:25.013Z,97403.86
2019-05-23T09:53:26.981Z,97407.66
2019-05-23T09:58:28.553Z,97412.83
2019-05-23T10:03:30.468Z,97406.05
2019-05-23T10:08:32.090Z,97414.03
2019-05-23T10:13:38.962Z,97416.04
2019-05-23T10:18:37.699Z,97425.41
2019-05-23T10:23:39.387Z,97426.69
2019-05-23T10:28:40.873Z,97432.16
2019-05-23T10:33:42.681Z,97432.31
2019-05-23T10:38:44.573Z,97429.64
2019-05-23T10:43:46.355Z,97426.94
2019-05-23T10:48:47.918Z,97432.45
2019-05-23T10:53:49.495Z,97431.70
2019-05-23T10:58:51.116Z,97436.55
2019-05-23T11:03:53.931Z,97436.20
2019-05-23T11:08:55.824Z,97436.70
2019-05-23T11:13:57.822Z,97443.00
2019-05-23T11:18:59.311Z,97438.95
2019-05-23T11:24:01.199Z,97436.77
2019-05-23T11:29:04.417Z,97438.91
2019-05-23T11:34:06.765Z,97445.77
2019-05-23T11:39:09.043Z,97448.84
2019-05-23T11:44:10.533Z,97452.47
2019-05-23T11:49:14.119Z,97457.67
2019-05-23T11:54:16.195Z,97453.33
2019-05-23T11:59:18.875Z,97456.82
2019-05-23T12:04:22.093Z,97457.12
2019-05-23T12:09:25.778Z,97457.95
2019-05-23T12:14:27.688Z,97459.78
2019-05-23T12:19:30.569Z,97466.43
2019-05-23T12:24:35.344Z,97469.71
2019-05-23T12:29:35.849Z,97467.34
2019-05-23T12:34:39.880Z,97464.48
2019-05-23T12:39:41.678Z,97464.58
2019-05-23T12:44:43.364Z,97474.23
2019-05-23T12:49:53.152Z,97467.39
2019-05-23T12:54:54.910Z,97465.20
2019-05-23T12:59:57.303Z,97466.47
2019-05-23T13:04:59.318Z,97469.28
2019-05-23T13:10:01.218Z,97476.48
2019-05-23T13:15:05.494Z,97487.19
2019-05-23T13:20:08.671Z,97485.14
2019-05-23T13:25:10.765Z,97492.80
2019-05-23T13:30:13.295Z,97491.47
2019-05-23T13:35:15.268Z,97496.52
2019-05-23T13:40:17.212Z,97497.28
2019-05-23T13:45:19.187Z,97511.55
2019-05-23T13:50:21.287Z,97505.77
2019-05-23T13:55:24.097Z,97499.73
2019-05-23T14:00:28.116Z,97493.95
2019-05-23T14:05:29.902Z,97503.43
2019-05-23T14:10:31.514Z,97500.77
2019-05-23T14:15:50.434Z,97494.27
2019-05-23T14:20:52.012Z,97493.23
2019-05-23T14:25:55.737Z,97497.38
2019-05-23T14:31:03.687Z,97491.77
2019-05-23T14:36:19.448Z,97495.28
2019-05-23T14:41:22.460Z,97506.89
2019-05-23T14:46:26.131Z,97510.16
2019-05-23T14:51:39.918Z,97518.49
2019-05-23T14:56:42.986Z,97529.48
2019-05-23T15:01:46.068Z,97536.60
2019-05-23T15:06:47.584Z,97539.83
2019-05-23T15:11:49.404Z,97531.86
2019-05-23T15:16:50.880Z,97540.80
2019-05-23T15:21:52.781Z,97539.41
2019-05-23T15:26:54.649Z,97533.41
2019-05-23T15:32:02.292Z,97534.03
2019-05-23T15:36:59.713Z,97532.16
2019-05-23T15:42:01.448Z,97529.97
2019-05-23T15:47:03.567Z,97527.31
2019-05-23T15:52:07.278Z,97523.69
2019-05-23T15:57:10.903Z,97524.45
2019-05-23T16:02:15.817Z,97523.27
2019-05-23T16:07:18.067Z,97510.55
2019-05-23T16:12:20.142Z,97512.85
2019-05-23T16:17:22.250Z,97516.13
2019-05-23T16:22:24.215Z,97516.84
2019-05-23T16:27:26.435Z,97516.34
2019-05-23T16:32:28.197Z,97521.45
2019-05-23T16:37:29.836Z,97521.38
2019-05-23T16:42:31.507Z,97524.17
2019-05-23T16:47:33.730Z,97527.05
2019-05-23T16:52:35.685Z,97532.30
2019-05-23T16:57:41.701Z,97531.87
2019-05-23T17:03:00.430Z,97528.38
2019-05-23T17:08:10.091Z,97536.00
2019-05-23T17:13:28.784Z,97537.19
2019-05-23T17:18:35.530Z,97536.14
2019-05-23T17:23:55.700Z,97530.83
2019-05-23T17:29:02.097Z,97526.63
2019-05-23T17:34:04.494Z,97522.78
2019-05-23T17:39:09.081Z,97535.06
2019-05-23T17:44:10.905Z,97535.42
2019-05-23T17:49:12.488Z,97541.09
2019-05-23T17:54:14.678Z,97539.27
2019-05-23T17:59:16.676Z,97541.31
2019-05-23T18:04:19.436Z,97543.83
2019-05-23T18:09:21.222Z,97549.86
2019-05-23T18:14:23.042Z,97546.34
2019-05-23T18:19:25.626Z,97540.20
2019-05-23T18:24:27.579Z,97541.45
2019-05-23T18:29:29.495Z,97549.42
2019-05-23T18:34:31.966Z,97558.98
2019-05-23T18:39:34.462Z,97560.81
2019-05-23T18:44:36.787Z,97570.25
2019-05-23T18:49:40.279Z,97571.94
2019-05-23T18:54:42.067Z,97572.19
2019-05-23T18:59:44.130Z,97577.80
2019-05-23T19:04:47.098Z,97583.69
2019-05-23T19:09:48.878Z,97577.87
2019-05-23T19:14:50.702Z,97585.37
2019-05-23T19:19:52.379Z,97592.34
2019-05-23T19:24:54.072Z,97594.86
2019-05-23T19:29:55.644Z,97591.73
2019-05-23T19:34:57.630Z,97591.23
2019-05-23T19:39:59.715Z,97590.76
2019-05-23T19:45:01.551Z,97593.88
2019-05-23T19:50:04.521Z,97595.93
2019-05-23T19:55:06.809Z,97597.26
2019-05-23T20:00:10.930Z,97596.29
2019-05-23T20:05:15.907Z,97596.29
2019-05-23T20:10:18.419Z,97598.09
2019-05-23T20:15:20.493Z,97590.40
2019-05-23T20:20:22.394Z,97586.20
2019-05-23T20:25:25.180Z,97583.90
2019-05-23T20:30:49.288Z,97583.40
2019-05-23T20:35:51.399Z,97580.66
2019-05-23T20:40:53.480Z,97586.13
2019-05-23T20:45:55.317Z,97579.13
2019-05-23T20:50:57.005Z,97577.80
2019-05-23T20:55:58.578Z,97586.27
2019-05-23T21:01:08.528Z,97585.63
2019-05-23T21:06:10.471Z,97584.51
2019-05-23T21:11:12.127Z,97587.31
2019-05-23T21:16:13.852Z,97590.79
2019-05-23T21:21:15.527Z,97586.95
2019-05-23T21:26:17.720Z,97594.31
2019-05-23T21:31:20.918Z,97587.81
2019-05-23T21:36:22.531Z,97594.09
2019-05-23T21:41:24.115Z,97596.11
2019-05-23T21:46:25.697Z,97590.94
2019-05-23T21:51:27.387Z,97582.49
2019-05-23T21:56:28.958Z,97580.81
2019-05-23T22:01:38.661Z,97584.80
2019-05-23T22:06:42.396Z,97578.98
2019-05-23T22:11:44.093Z,97574.85
2019-05-23T22:16:46.643Z,97575.20
2019-05-23T22:21:48.326Z,97575.56
2019-05-23T22:26:50.295Z,97581.09
2019-05-23T22:31:56.267Z,97582.21
2019-05-23T22:36:57.803Z,97583.61
2019-05-23T22:41:59.527Z,97577.05
2019-05-23T22:47:01.101Z,97577.19
2019-05-23T22:52:03.586Z,97567.53
2019-05-23T22:57:05.274Z,97561.31
2019-05-23T23:02:08.958Z,97551.22
2019-05-23T23:07:11.676Z,97553.41
2019-05-23T23:12:13.458Z,97549.50
2019-05-23T23:17:16.539Z,97538.37
2019-05-23T23:22:18.004Z,97551.11
2019-05-23T23:27:19.510Z,97555.50
2019-05-23T23:32:21.386Z,97559.02
2019-05-23T23:37:23.227Z,97556.14
2019-05-23T23:42:24.941Z,97561.67
2019-05-23T23:47:44.767Z,97559.23
2019-05-23T23:53:04.711Z,97553.63
2019-05-23T23:58:06.191Z,97553.34
